SVA634 OJAI-OEJN
Flight info
| Callsign | SVA634 |
|---|---|
| Flight time | N/A |
| Altitude | 38000 |
| Route | MUNRA1C/26L MUNRA M449 WEJ T510 RBG B544 NOMDA |
| Aircraft | A333/H-SDE3GHIJ2J3J5M1RVWXY/LB2D1 |
Departure
| Time | 2026-04-30 22:05 |
|---|---|
| Airport | Queen Alia International Airport (OJAI) |
Arrival
| Time | N/A |
|---|---|
| Airport | King Abdulaziz International Airport (OEJN) |
| Time | Latitude | Longitude | Altitude | Speed | Heading |
|---|---|---|---|---|---|
| 2026-04-30 21:33 | 31.72415 | 35.98665 | 2412 ft | 0 kts | 171° |
| 2026-04-30 21:53 | 31.72420 | 35.98665 | 2415 ft | 2 kts | 171° |
| 2026-04-30 21:54 | 31.72439 | 35.98661 | 2412 ft | 3 kts | 171° |
| 2026-04-30 21:54 | 31.72458 | 35.98658 | 2411 ft | 2 kts | 172° |
| 2026-04-30 21:54 | 31.72473 | 35.98655 | 2413 ft | 3 kts | 143° |
| 2026-04-30 21:54 | 31.72483 | 35.98639 | 2410 ft | 3 kts | 100° |
| 2026-04-30 21:55 | 31.72484 | 35.98617 | 2412 ft | 2 kts | 83° |
| 2026-04-30 21:55 | 31.72483 | 35.98611 | 2412 ft | 1 kts | 80° |
| 2026-04-30 21:58 | 31.72485 | 35.98619 | 2412 ft | 4 kts | 80° |
| 2026-04-30 21:58 | 31.72491 | 35.98665 | 2412 ft | 7 kts | 81° |
| 2026-04-30 21:58 | 31.72500 | 35.98729 | 2414 ft | 9 kts | 81° |
| 2026-04-30 21:58 | 31.72512 | 35.98809 | 2415 ft | 11 kts | 81° |
| 2026-04-30 21:59 | 31.72546 | 35.98890 | 2415 ft | 12 kts | 36° |
| 2026-04-30 21:59 | 31.72627 | 35.98892 | 2413 ft | 12 kts | 354° |
| 2026-04-30 21:59 | 31.72684 | 35.98942 | 2413 ft | 11 kts | 77° |
| 2026-04-30 22:00 | 31.72715 | 35.99155 | 2413 ft | 15 kts | 80° |
| 2026-04-30 22:00 | 31.72756 | 35.99428 | 2415 ft | 19 kts | 78° |
| 2026-04-30 22:00 | 31.72780 | 35.99584 | 2415 ft | 20 kts | 83° |
| 2026-04-30 22:01 | 31.72805 | 35.99753 | 2414 ft | 22 kts | 79° |
| 2026-04-30 22:01 | 31.72833 | 35.99932 | 2412 ft | 23 kts | 80° |
| 2026-04-30 22:01 | 31.72859 | 36.00124 | 2414 ft | 24 kts | 82° |
| 2026-04-30 22:01 | 31.72887 | 36.00325 | 2415 ft | 26 kts | 80° |
| 2026-04-30 22:02 | 31.72919 | 36.00535 | 2414 ft | 27 kts | 79° |
| 2026-04-30 22:02 | 31.72952 | 36.00735 | 2414 ft | 16 kts | 73° |
| 2026-04-30 22:02 | 31.73039 | 36.00779 | 2414 ft | 15 kts | 356° |
| 2026-04-30 22:02 | 31.73148 | 36.00757 | 2414 ft | 17 kts | 352° |
| 2026-04-30 22:03 | 31.73206 | 36.00688 | 2413 ft | 11 kts | 278° |
| 2026-04-30 22:03 | 31.73205 | 36.00624 | 2411 ft | 12 kts | 263° |
| 2026-04-30 22:03 | 31.73202 | 36.00597 | 2411 ft | 0 kts | 261° |
| 2026-04-30 22:03 | 31.73200 | 36.00585 | 2411 ft | 2 kts | 261° |
| 2026-04-30 22:04 | 31.73196 | 36.00554 | 2413 ft | 9 kts | 260° |
| 2026-04-30 22:04 | 31.73164 | 36.00371 | 2415 ft | 47 kts | 258° |
| 2026-04-30 22:04 | 31.72908 | 35.98489 | 2455 ft | 179 kts | 261° |
| 2026-04-30 22:05 | 31.72663 | 35.96960 | 3091 ft | 199 kts | 260° |
| 2026-04-30 22:05 | 31.72354 | 35.95289 | 3879 ft | 222 kts | 257° |
| 2026-04-30 22:05 | 31.71926 | 35.93451 | 4705 ft | 244 kts | 253° |
| 2026-04-30 22:05 | 31.71401 | 35.91492 | 5571 ft | 259 kts | 255° |
| 2026-04-30 22:06 | 31.71083 | 35.89369 | 6365 ft | 270 kts | 262° |
| 2026-04-30 22:06 | 31.70722 | 35.84832 | 8059 ft | 286 kts | 263° |
| 2026-04-30 22:06 | 31.70223 | 35.82592 | 9064 ft | 285 kts | 239° |
| 2026-04-30 22:07 | 31.68957 | 35.80838 | 10039 ft | 283 kts | 213° |
| 2026-04-30 22:07 | 31.67177 | 35.79952 | 10998 ft | 278 kts | 187° |
| 2026-04-30 22:07 | 31.65272 | 35.80120 | 11989 ft | 276 kts | 162° |
| 2026-04-30 22:07 | 31.63626 | 35.81292 | 12889 ft | 284 kts | 138° |
| 2026-04-30 22:08 | 31.62314 | 35.83124 | 13392 ft | 302 kts | 138° |
| 2026-04-30 22:08 | 31.60508 | 35.84458 | 13712 ft | 318 kts | 160° |
| 2026-04-30 22:08 | 31.58327 | 35.85149 | 14162 ft | 331 kts | 171° |
| 2026-04-30 22:08 | 31.56019 | 35.85551 | 14772 ft | 340 kts | 174° |
| 2026-04-30 22:09 | 31.53647 | 35.85907 | 15433 ft | 347 kts | 174° |
| 2026-04-30 22:09 | 31.51238 | 35.86324 | 16123 ft | 354 kts | 173° |
| 2026-04-30 22:09 | 31.48824 | 35.86827 | 16804 ft | 360 kts | 172° |
| 2026-04-30 22:09 | 31.46343 | 35.87423 | 17486 ft | 367 kts | 171° |
| 2026-04-30 22:10 | 31.43795 | 35.88090 | 18172 ft | 374 kts | 171° |
| 2026-04-30 22:10 | 31.41243 | 35.88789 | 18793 ft | 380 kts | 171° |
| 2026-04-30 22:10 | 31.38647 | 35.89512 | 19331 ft | 387 kts | 171° |
| 2026-04-30 22:10 | 31.36036 | 35.90237 | 19825 ft | 394 kts | 171° |
| 2026-04-30 22:11 | 31.30629 | 35.91733 | 20957 ft | 405 kts | 171° |
| 2026-04-30 22:11 | 31.27864 | 35.92492 | 21504 ft | 410 kts | 172° |
| 2026-04-30 22:11 | 31.25066 | 35.93258 | 22029 ft | 416 kts | 172° |
| 2026-04-30 22:12 | 31.22228 | 35.94033 | 22535 ft | 421 kts | 172° |
| 2026-04-30 22:12 | 31.19354 | 35.94816 | 23064 ft | 427 kts | 172° |
| 2026-04-30 22:12 | 31.16448 | 35.95607 | 23566 ft | 432 kts | 172° |
| 2026-04-30 22:12 | 31.13501 | 35.96409 | 23965 ft | 437 kts | 172° |
| 2026-04-30 22:13 | 31.10529 | 35.97218 | 24443 ft | 440 kts | 172° |
| 2026-04-30 22:13 | 31.07533 | 35.98034 | 24897 ft | 443 kts | 172° |
| 2026-04-30 22:13 | 31.04518 | 35.98855 | 25357 ft | 446 kts | 173° |
| 2026-04-30 22:13 | 31.01483 | 35.99680 | 25817 ft | 449 kts | 173° |
| 2026-04-30 22:14 | 30.98429 | 36.00509 | 26266 ft | 452 kts | 173° |
| 2026-04-30 22:14 | 30.95360 | 36.01342 | 26719 ft | 455 kts | 173° |
| 2026-04-30 22:14 | 30.92262 | 36.02182 | 27155 ft | 459 kts | 173° |
| 2026-04-30 22:14 | 30.89142 | 36.03027 | 27568 ft | 462 kts | 173° |
| 2026-04-30 22:15 | 30.85998 | 36.03879 | 28002 ft | 465 kts | 173° |
| 2026-04-30 22:15 | 30.82835 | 36.04735 | 28433 ft | 468 kts | 173° |
| 2026-04-30 22:15 | 30.79655 | 36.05594 | 28863 ft | 471 kts | 173° |
| 2026-04-30 22:15 | 30.76448 | 36.06461 | 29292 ft | 475 kts | 173° |
| 2026-04-30 22:16 | 30.73220 | 36.07332 | 29717 ft | 478 kts | 173° |
| 2026-04-30 22:16 | 30.69970 | 36.08209 | 30119 ft | 481 kts | 173° |
| 2026-04-30 22:17 | 30.60096 | 36.10867 | 31110 ft | 490 kts | 173° |
| 2026-04-30 22:17 | 30.56765 | 36.11764 | 31458 ft | 493 kts | 173° |
| 2026-04-30 22:17 | 30.50061 | 36.13566 | 32235 ft | 495 kts | 173° |
| 2026-04-30 22:18 | 30.46706 | 36.14470 | 32743 ft | 494 kts | 173° |
| 2026-04-30 22:18 | 30.40026 | 36.16265 | 33681 ft | 493 kts | 174° |
| 2026-04-30 22:19 | 30.33354 | 36.18050 | 34510 ft | 491 kts | 174° |
| 2026-04-30 22:19 | 30.30038 | 36.18937 | 34988 ft | 487 kts | 174° |
| 2026-04-30 22:19 | 30.23477 | 36.20691 | 35945 ft | 481 kts | 174° |
| 2026-04-30 22:20 | 30.20224 | 36.21559 | 36367 ft | 479 kts | 174° |
| 2026-04-30 22:20 | 30.13767 | 36.23277 | 37173 ft | 475 kts | 174° |
| 2026-04-30 22:20 | 30.10558 | 36.24130 | 37624 ft | 472 kts | 174° |
| 2026-04-30 22:21 | 30.07370 | 36.24978 | 38057 ft | 469 kts | 174° |
| 2026-04-30 22:21 | 30.04199 | 36.25821 | 38495 ft | 466 kts | 174° |
| 2026-04-30 22:21 | 30.01045 | 36.26659 | 38840 ft | 464 kts | 174° |
| 2026-04-30 22:21 | 29.97887 | 36.27494 | 38937 ft | 467 kts | 174° |
| 2026-04-30 22:22 | 29.91581 | 36.29161 | 38952 ft | 469 kts | 174° |
| 2026-04-30 22:22 | 29.85222 | 36.30847 | 38959 ft | 468 kts | 174° |
| 2026-04-30 22:23 | 29.78882 | 36.32528 | 38957 ft | 467 kts | 174° |
| 2026-04-30 22:23 | 29.72548 | 36.34204 | 38955 ft | 467 kts | 174° |
| 2026-04-30 22:24 | 29.66210 | 36.35877 | 38958 ft | 467 kts | 174° |
| 2026-04-30 22:24 | 29.59872 | 36.37549 | 38953 ft | 467 kts | 174° |
| 2026-04-30 22:25 | 29.53541 | 36.39217 | 38957 ft | 467 kts | 174° |
| 2026-04-30 22:25 | 29.47206 | 36.40885 | 38954 ft | 467 kts | 174° |
| 2026-04-30 22:26 | 29.37682 | 36.43009 | 38940 ft | 462 kts | 179° |
| 2026-04-30 22:27 | 29.31324 | 36.44105 | 38952 ft | 462 kts | 179° |
| 2026-04-30 22:27 | 29.21795 | 36.45764 | 38949 ft | 462 kts | 179° |
| 2026-04-30 22:28 | 29.12303 | 36.47473 | 38942 ft | 462 kts | 179° |
| 2026-04-30 22:29 | 28.99624 | 36.49768 | 38950 ft | 461 kts | 179° |
| 2026-04-30 22:31 | 28.77577 | 36.53743 | 38944 ft | 456 kts | 180° |
| 2026-04-30 22:32 | 28.61908 | 36.56552 | 38952 ft | 456 kts | 180° |
| 2026-04-30 22:33 | 28.46272 | 36.59342 | 38959 ft | 455 kts | 180° |
| 2026-04-30 22:35 | 28.30769 | 36.60795 | 38965 ft | 439 kts | 191° |
| 2026-04-30 22:36 | 28.18517 | 36.60077 | 38970 ft | 450 kts | 192° |
| 2026-04-30 22:36 | 28.15367 | 36.59882 | 38968 ft | 456 kts | 191° |
| 2026-04-30 22:37 | 28.02712 | 36.59169 | 38968 ft | 454 kts | 191° |
| 2026-04-30 22:38 | 27.90124 | 36.58460 | 38974 ft | 453 kts | 191° |
| 2026-04-30 22:39 | 27.80689 | 36.57923 | 38976 ft | 453 kts | 191° |
| 2026-04-30 22:40 | 27.61797 | 36.56860 | 38975 ft | 450 kts | 192° |
| 2026-04-30 22:41 | 27.46229 | 36.55983 | 38949 ft | 449 kts | 192° |
| 2026-04-30 22:43 | 27.27515 | 36.54934 | 38938 ft | 448 kts | 192° |
| 2026-04-30 22:44 | 27.15064 | 36.54268 | 38926 ft | 450 kts | 189° |
| 2026-04-30 22:45 | 27.02486 | 36.57824 | 38927 ft | 488 kts | 165° |
| 2026-04-30 22:45 | 26.96366 | 36.61223 | 38918 ft | 492 kts | 163° |
| 2026-04-30 22:47 | 26.78053 | 36.71505 | 38922 ft | 489 kts | 164° |
| 2026-04-30 22:48 | 26.65823 | 36.78205 | 38922 ft | 489 kts | 164° |
| 2026-04-30 22:49 | 26.47507 | 36.88232 | 38914 ft | 484 kts | 165° |
| 2026-04-30 22:51 | 26.30424 | 36.97543 | 38930 ft | 483 kts | 165° |
| 2026-04-30 22:52 | 26.21354 | 37.02473 | 38927 ft | 484 kts | 165° |
| 2026-04-30 22:53 | 26.09246 | 37.09047 | 38926 ft | 484 kts | 165° |
| 2026-04-30 22:53 | 26.00170 | 37.13964 | 38924 ft | 484 kts | 165° |
| 2026-04-30 22:55 | 25.85012 | 37.22154 | 38903 ft | 485 kts | 165° |
| 2026-04-30 22:56 | 25.73264 | 37.29977 | 38899 ft | 499 kts | 156° |
| 2026-04-30 22:57 | 25.58883 | 37.40890 | 38923 ft | 501 kts | 156° |
| 2026-04-30 22:58 | 25.47359 | 37.49570 | 38922 ft | 501 kts | 156° |
| 2026-04-30 22:59 | 25.30030 | 37.62572 | 38929 ft | 502 kts | 156° |